Time;durP1;ratioP1;P1;durP2;ratioP2;P2;SDS_P1;SDS_P2;PMS_P1;PMS_P2;Temp;Humidity;BMP_temperature;BMP_pressure;BME280_temperature;BME280_humidity;BME280_pressure;Samples;Min_cycle;Max_cycle;Signal;HPM_P1;HPM_P2
2022/09/15 00:00:59;;;;;;;3.55;1.50;;;;;;;12.25;78.86;98032.09;1772447;79;21116;-60
2022/09/15 00:03:28;;;;;;;3.47;1.32;;;;;;;12.23;78.95;98032.20;1771958;79;20991;-60
2022/09/15 00:05:55;;;;;;;3.25;1.37;;;;;;;12.23;78.97;98027.45;1768628;81;21000;-61
2022/09/15 00:08:23;;;;;;;2.47;1.20;;;;;;;12.22;78.99;98021.39;1767677;79;21068;-61
2022/09/15 00:10:57;;;;;;;7.37;1.57;;;;;;;12.17;79.07;98023.55;1770782;79;21842;-60
2022/09/15 00:13:25;;;;;;;7.37;1.80;;;;;;;12.13;79.08;98014.30;1771763;79;21538;-61
2022/09/15 00:15:52;;;;;;;6.42;1.62;;;;;;;12.08;79.10;98017.76;1774219;79;21193;-60
2022/09/15 00:18:19;;;;;;;2.35;0.90;;;;;;;12.03;79.21;98017.29;1772576;79;21618;-61
2022/09/15 00:20:46;;;;;;;4.87;1.55;;;;;;;12.04;78.78;98012.40;1772029;80;21020;-61
2022/09/15 00:23:15;;;;;;;4.75;1.40;;;;;;;11.94;78.77;98012.80;1773075;79;21697;-60
2022/09/15 00:25:47;;;;;;;3.90;1.12;;;;;;;11.88;78.77;98014.61;1772415;79;21145;-60
2022/09/15 00:28:16;;;;;;;5.22;1.60;;;;;;;11.77;78.83;98019.34;1767203;81;21730;-61
2022/09/15 00:30:47;;;;;;;4.97;1.45;;;;;;;11.69;78.81;98009.48;1774626;79;21008;-61
2022/09/15 00:33:15;;;;;;;6.35;1.60;;;;;;;11.56;78.88;98010.09;1767491;79;21235;-60
2022/09/15 00:35:45;;;;;;;5.25;1.72;;;;;;;11.48;78.96;98008.55;1768580;79;21035;-60
2022/09/15 00:38:14;;;;;;;4.20;1.35;;;;;;;11.37;79.08;98006.31;1768157;79;20968;-60
2022/09/15 00:40:53;;;;;;;5.83;1.55;;;;;;;11.29;79.26;97998.24;1777563;80;20967;-60
2022/09/15 00:43:41;;;;;;;5.33;1.40;;;;;;;11.28;79.17;98006.19;1768722;79;21530;-61
2022/09/15 00:46:08;;;;;;;5.17;1.40;;;;;;;11.20;79.22;98001.55;1767144;80;21112;-60
2022/09/15 00:48:37;;;;;;;6.10;1.35;;;;;;;11.14;79.34;98004.63;1778029;79;20992;-60
2022/09/15 00:51:07;;;;;;;5.15;1.30;;;;;;;11.13;79.45;98000.38;1769406;79;21080;-60
2022/09/15 00:53:35;;;;;;;3.90;1.27;;;;;;;11.07;79.55;97996.45;1771956;79;21580;-60
2022/09/15 00:56:04;;;;;;;3.27;1.32;;;;;;;11.07;79.57;98002.16;1771785;80;21031;-60
2022/09/15 00:58:36;;;;;;;4.50;1.15;;;;;;;11.07;79.57;97998.23;1771724;79;21420;-60
2022/09/15 01:01:06;;;;;;;4.95;1.50;;;;;;;11.04;79.59;97994.08;1766377;79;21506;-60
2022/09/15 01:03:34;;;;;;;3.92;1.52;;;;;;;11.02;79.57;97993.83;1768972;79;21075;-60
2022/09/15 01:06:27;;;;;;;7.10;1.52;;;;;;;10.99;79.59;97993.59;1771956;80;20992;-60
2022/09/15 01:09:17;;;;;;;3.95;1.40;;;;;;;10.96;79.67;97986.82;1766643;80;21065;-60
2022/09/15 01:11:44;;;;;;;7.42;1.65;;;;;;;10.91;79.89;97995.95;1756087;80;21085;-60
2022/09/15 01:14:11;;;;;;;5.50;1.42;;;;;;;10.89;79.99;97983.00;1754708;81;21528;-61
2022/09/15 01:16:58;;;;;;;7.60;1.85;;;;;;;10.83;80.10;97982.17;1755567;81;21023;-60
2022/09/15 01:19:46;;;;;;;;;;;;;;;10.79;80.28;97982.05;1757110;80;21576;-60
2022/09/15 01:22:42;;;;;;;4.90;1.62;;;;;;;10.69;80.53;97983.69;1762541;80;20196;-61
2022/09/15 01:25:49;;;;;;;4.78;1.40;;;;;;;10.62;80.52;97975.98;1737342;81;21079;-59
2022/09/15 01:28:56;;;;;;;4.87;1.40;;;;;;;10.56;80.63;97977.72;1732535;81;21006;-60
2022/09/15 01:31:31;;;;;;;4.58;1.50;;;;;;;10.51;80.72;97968.95;1731881;81;21115;-60
2022/09/15 01:34:05;;;;;;;6.55;1.85;;;;;;;10.48;80.88;97972.62;1740712;81;20961;-60
2022/09/15 01:36:40;;;;;;;7.67;2.25;;;;;;;10.51;80.83;97965.86;1735614;81;21120;-61
2022/09/15 01:39:26;;;;;;;2.77;1.20;;;;;;;10.52;80.86;97963.59;1735586;81;21474;-60
2022/09/15 01:42:01;;;;;;;6.87;2.20;;;;;;;10.51;80.96;97963.25;1733778;82;21033;-60
2022/09/15 01:44:32;;;;;;;5.58;1.72;;;;;;;10.48;80.97;97956.96;1705340;83;21127;-59
2022/09/15 01:47:08;;;;;;;5.45;1.42;;;;;;;10.46;80.99;97960.15;1703361;82;21037;-59
2022/09/15 01:49:49;;;;;;;7.70;1.85;;;;;;;10.41;81.13;97955.74;1727785;82;21574;-60
2022/09/15 01:52:19;;;;;;;6.53;2.17;;;;;;;10.39;81.15;97955.05;1730896;81;21187;-59
2022/09/15 01:54:51;;;;;;;2.55;1.12;;;;;;;10.40;81.20;97955.39;1730326;81;20977;-59
2022/09/15 01:57:21;;;;;;;7.05;1.47;;;;;;;10.35;81.26;97947.08;1754558;81;21009;-60
2022/09/15 01:59:54;;;;;;;3.20;1.40;;;;;;;10.30;81.33;97950.49;1737641;81;21008;-59
2022/09/15 02:02:38;;;;;;;6.60;1.47;;;;;;;10.25;81.42;97949.97;1763014;80;20935;-59
2022/09/15 02:05:24;;;;;;;4.28;1.52;;;;;;;10.21;81.55;97948.06;1756658;81;21926;-59
2022/09/15 02:08:08;;;;;;;6.08;1.45;;;;;;;10.16;81.67;97954.56;1754173;81;20954;-60
2022/09/15 02:10:58;;;;;;;5.78;2.37;;;;;;;10.14;81.63;97944.71;1731164;81;21608;-60
2022/09/15 02:13:49;;;;;;;4.55;1.47;;;;;;;10.09;81.75;97944.59;1744566;81;21585;-60
2022/09/15 02:16:20;;;;;;;4.50;1.10;;;;;;;10.05;81.93;97947.08;1731522;82;21071;-60
2022/09/15 02:19:20;;;;;;;5.75;1.45;;;;;;;10.01;82.07;97936.50;1744037;80;21164;-60
2022/09/15 02:21:58;;;;;;;3.92;1.55;;;;;;;9.97;82.09;97940.29;1731054;82;21122;-60
2022/09/15 02:24:32;;;;;;;4.97;1.35;;;;;;;9.95;82.15;97938.73;1748252;81;20902;-60
2022/09/15 02:27:01;;;;;;;7.22;1.65;;;;;;;9.92;82.25;97939.78;1749883;81;20996;-60
2022/09/15 02:29:31;;;;;;;2.83;1.10;;;;;;;9.91;82.36;97930.28;1746683;81;21156;-60
2022/09/15 02:32:01;;;;;;;2.25;1.20;;;;;;;9.89;82.46;97929.59;1744737;81;21131;-60
2022/09/15 02:34:37;;;;;;;4.40;1.32;;;;;;;9.86;82.48;97925.91;1750235;81;21064;-60
2022/09/15 02:37:06;;;;;;;4.05;1.10;;;;;;;9.86;82.53;97921.99;1748924;81;21009;-60
2022/09/15 02:39:36;;;;;;;4.03;1.40;;;;;;;9.85;82.71;97920.31;1734874;81;21101;-60
2022/09/15 02:42:04;;;;;;;6.42;1.75;;;;;;;9.84;82.66;97919.95;1746241;80;21061;-60
2022/09/15 02:44:31;;;;;;;;;;;;;;;9.83;82.78;97919.58;1732373;82;21233;-60
2022/09/15 02:47:00;;;;;;;4.03;1.05;;;;;;;9.82;82.95;97918.75;1742932;81;20177;-60
2022/09/15 02:49:27;;;;;;;4.53;1.57;;;;;;;9.81;82.90;97921.49;1755652;80;20983;-60
2022/09/15 02:51:54;;;;;;;6.80;1.47;;;;;;;9.79;82.92;97924.19;1754560;81;20963;-59
2022/09/15 02:54:21;;;;;;;2.27;0.83;;;;;;;9.79;83.04;97918.16;1755703;81;21570;-60
2022/09/15 02:56:48;;;;;;;4.42;1.65;;;;;;;9.80;83.21;97917.20;1764390;80;21059;-60
2022/09/15 02:59:14;;;;;;;3.80;1.15;;;;;;;9.84;83.32;97919.95;1763603;79;21611;-60
2022/09/15 03:01:41;;;;;;;3.60;1.45;;;;;;;9.86;83.36;97915.48;1772276;79;21059;-60
2022/09/15 03:04:08;;;;;;;2.58;1.30;;;;;;;9.85;83.31;97909.88;1746860;82;21062;-60
2022/09/15 03:06:35;;;;;;;6.03;1.82;;;;;;;9.87;83.38;97910.61;1747351;82;21058;-60
2022/09/15 03:09:06;;;;;;;4.90;1.35;;;;;;;9.89;83.71;97911.34;1744880;81;21557;-60
2022/09/15 03:11:34;;;;;;;4.50;1.80;;;;;;;9.93;83.68;97908.85;1757737;81;21026;-60
2022/09/15 03:14:04;;;;;;;8.78;1.80;;;;;;;9.97;83.82;97907.70;1758127;80;21002;-61
2022/09/15 03:16:33;;;;;;;2.95;1.20;;;;;;;10.03;83.88;97908.55;1755403;80;21007;-60
2022/09/15 03:19:00;;;;;;;4.87;1.50;;;;;;;10.11;83.90;97911.04;1755530;80;21066;-60
2022/09/15 03:21:29;;;;;;;3.90;1.52;;;;;;;10.16;83.92;97912.84;1756596;80;22085;-60
2022/09/15 03:23:58;;;;;;;5.70;1.85;;;;;;;10.25;84.09;97901.71;1755787;81;21484;-60
2022/09/15 03:26:24;;;;;;;6.03;1.87;;;;;;;10.34;84.18;97902.38;1756873;80;20918;-60
2022/09/15 03:28:52;;;;;;;3.12;1.30;;;;;;;10.42;84.21;97901.33;1758649;80;20918;-60
2022/09/15 03:31:18;;;;;;;4.83;1.20;;;;;;;10.57;83.85;97895.89;1756466;80;21684;-59
2022/09/15 03:33:45;;;;;;;3.30;1.22;;;;;;;10.71;83.82;97898.27;1757925;80;22256;-59
2022/09/15 03:36:12;;;;;;;3.50;1.20;;;;;;;10.80;83.86;97899.34;1757721;81;20934;-60
2022/09/15 03:38:39;;;;;;;4.33;1.30;;;;;;;10.90;83.90;97893.30;1758169;81;21344;-60
2022/09/15 03:41:10;;;;;;;5.28;1.27;;;;;;;10.88;84.07;97899.09;1757601;81;21295;-60
2022/09/15 03:43:38;;;;;;;5.70;1.22;;;;;;;10.97;84.07;97902.30;1745594;80;20958;-60
2022/09/15 03:46:08;;;;;;;5.65;1.25;;;;;;;11.02;84.10;97902.43;1791304;78;21604;-60
2022/09/15 04:01:47;;;;;;;3.37;1.32;;;;;;;11.22;84.49;97895.16;1860095;75;22706;-59
2022/09/15 04:04:14;;;;;;;7.55;2.77;;;;;;;11.25;84.57;97898.00;1831069;76;20953;-60
2022/09/15 04:06:41;;;;;;;2.10;1.10;;;;;;;11.28;84.50;97895.97;1795516;78;21461;-60
2022/09/15 04:09:09;;;;;;;4.03;1.30;;;;;;;11.33;84.49;97900.36;1763613;80;21637;-59
2022/09/15 04:11:36;;;;;;;3.37;1.32;;;;;;;11.36;84.56;97892.28;1793261;78;20953;-59
2022/09/15 04:14:03;;;;;;;7.62;1.00;;;;;;;11.39;84.49;97899.87;1796355;78;21597;-60
2022/09/15 04:16:30;;;;;;;5.87;1.50;;;;;;;11.42;84.59;97891.78;1801262;78;21025;-60
2022/09/15 04:18:56;;;;;;;3.37;1.93;;;;;;;11.45;84.68;97893.32;1797664;78;21073;-60
2022/09/15 04:21:25;;;;;;;2.45;0.88;;;;;;;11.49;84.67;97891.31;1798981;78;21060;-59
2022/09/15 04:23:54;;;;;;;3.35;1.15;;;;;;;11.53;84.75;97879.65;1797337;78;21478;-60
2022/09/15 04:26:30;;;;;;;4.40;1.30;;;;;;;11.55;84.73;97882.98;1779939;78;21137;-60
2022/09/15 04:28:57;;;;;;;5.10;1.40;;;;;;;11.59;84.80;97881.77;1773825;79;21083;-61
2022/09/15 04:31:24;;;;;;;7.33;1.62;;;;;;;11.63;84.82;97872.25;1798820;78;21128;-60
2022/09/15 04:33:53;;;;;;;5.30;1.35;;;;;;;11.66;84.86;97875.09;1804534;78;20950;-60
2022/09/15 04:36:27;;;;;;;2.47;1.20;;;;;;;11.72;85.02;97871.98;1803141;78;23515;-60
2022/09/15 04:38:57;;;;;;;2.52;1.17;;;;;;;11.72;85.02;97871.98;1801262;78;21009;-60
2022/09/15 04:41:26;;;;;;;4.92;1.22;;;;;;;11.75;84.98;97871.73;1798178;78;20959;-60
2022/09/15 04:43:53;;;;;;;4.42;1.30;;;;;;;11.76;85.04;97870.80;1798341;78;21759;-61
2022/09/15 04:46:20;;;;;;;2.50;1.10;;;;;;;11.79;85.17;97873.16;1793517;79;20950;-61
2022/09/15 04:48:48;;;;;;;2.00;1.00;;;;;;;11.80;85.12;97868.27;1768089;79;21000;-61
2022/09/15 04:51:17;;;;;;;;;;;;;;;11.82;85.20;97871.59;1797182;78;21004;-61
2022/09/15 04:53:45;;;;;;;3.37;1.10;;;;;;;11.85;85.39;97867.45;1795273;78;20480;-61
2022/09/15 04:56:16;;;;;;;4.05;1.32;;;;;;;11.83;85.40;97863.27;1798211;78;21481;-61
2022/09/15 04:58:47;;;;;;;2.77;1.00;;;;;;;11.91;85.08;97863.98;1797259;78;21564;-61
2022/09/15 05:01:22;;;;;;;3.85;1.17;;;;;;;11.91;85.08;97863.98;1801243;78;21062;-61
2022/09/15 05:03:50;;;;;;;3.00;0.90;;;;;;;11.94;85.52;97871.58;1779537;79;20993;-61
2022/09/15 05:06:22;;;;;;;2.52;1.07;;;;;;;11.99;85.53;97866.80;1775262;80;21055;-61
2022/09/15 05:08:51;;;;;;;2.77;1.30;;;;;;;11.99;85.58;97856.34;1799951;78;21067;-61
2022/09/15 05:11:18;;;;;;;3.60;1.20;;;;;;;11.88;85.54;97838.91;1797855;78;21041;-61
2022/09/15 05:13:46;;;;;;;4.03;1.30;;;;;;;11.88;85.54;97838.91;1800393;78;21037;-61
2022/09/15 05:16:15;;;;;;;;;;;;;;;12.03;85.76;97855.94;1804177;78;21636;-62
2022/09/15 05:18:44;;;;;;;3.33;1.22;;;;;;;12.07;85.87;97839.50;1803424;78;20115;-61
2022/09/15 05:21:15;;;;;;;6.65;1.55;;;;;;;12.11;85.85;97838.30;1801691;78;21168;-61
2022/09/15 05:23:43;;;;;;;3.65;1.15;;;;;;;12.14;85.84;97834.13;1802618;78;20917;-61
2022/09/15 05:26:17;;;;;;;3.80;1.50;;;;;;;12.16;85.81;97825.67;1802114;78;21077;-61
2022/09/15 05:28:44;;;;;;;4.20;0.95;;;;;;;12.21;85.83;97822.20;1795985;77;21021;-61
2022/09/15 05:31:16;;;;;;;;;;;;;;;12.25;85.65;97822.76;1800792;78;21459;-61
2022/09/15 05:33:44;;;;;;;6.05;1.20;;;;;;;12.28;85.78;97819.39;1799843;78;21030;-61
2022/09/15 05:36:13;;;;;;;4.60;0.90;;;;;;;12.31;85.84;97818.31;1783742;79;20956;-61
2022/09/15 05:38:41;;;;;;;7.90;1.20;;;;;;;12.38;85.86;97819.91;1783220;79;21042;-61
2022/09/15 05:41:11;;;;;;;2.58;0.70;;;;;;;12.45;85.82;97819.76;1773827;79;21337;-59
2022/09/15 05:43:39;;;;;;;1.45;0.70;;;;;;;12.54;85.80;97826.81;1780750;79;21044;-59
2022/09/15 05:46:06;;;;;;;1.52;0.80;;;;;;;12.66;85.81;97823.17;1770611;79;21442;-59
2022/09/15 05:48:34;;;;;;;1.50;0.72;;;;;;;12.79;85.95;97816.38;1769509;79;21056;-59
2022/09/15 05:51:01;;;;;;;1.32;0.60;;;;;;;12.94;85.85;97811.13;1797092;78;28277;-60
2022/09/15 05:53:28;;;;;;;;;;;;;;;13.07;85.68;97816.11;1799773;78;21579;-59
2022/09/15 05:56:01;;;;;;;2.95;0.70;;;;;;;13.23;85.55;97814.77;1795483;78;20095;-59
2022/09/15 05:58:29;;;;;;;1.45;0.60;;;;;;;13.40;85.49;97811.50;1798777;78;21077;-60
2022/09/15 06:00:56;;;;;;;3.67;0.90;;;;;;;13.54;85.25;97813.72;1782318;78;20992;-60
2022/09/15 06:03:23;;;;;;;2.90;1.10;;;;;;;13.65;85.43;97813.58;1769654;80;21071;-59
2022/09/15 06:05:59;;;;;;;2.10;0.90;;;;;;;13.81;85.26;97814.83;1768503;80;21447;-60
2022/09/15 06:08:32;;;;;;;1.95;0.90;;;;;;;13.97;85.23;97815.06;1762062;80;21155;-60
2022/09/15 06:11:10;;;;;;;2.33;1.10;;;;;;;14.05;84.90;97816.50;1766877;80;21062;-61
2022/09/15 06:13:39;;;;;;;1.40;0.65;;;;;;;14.07;84.92;97813.26;1760624;80;21037;-60
2022/09/15 06:16:10;;;;;;;3.05;1.02;;;;;;;14.13;84.73;97816.30;1768524;80;22141;-60
2022/09/15 06:18:38;;;;;;;1.00;0.50;;;;;;;14.17;84.92;97817.66;1773483;79;20989;-59
2022/09/15 06:21:11;;;;;;;1.35;0.70;;;;;;;14.26;84.84;97823.39;1770431;80;21080;-60
2022/09/15 06:23:39;;;;;;;1.47;0.70;;;;;;;14.40;84.84;97817.67;1773101;80;21666;-60
2022/09/15 06:26:13;;;;;;;2.05;0.80;;;;;;;14.54;84.68;97813.30;1779784;80;22259;-61
2022/09/15 06:28:44;;;;;;;2.30;0.53;;;;;;;14.59;84.25;97812.03;1761997;80;21480;-61
2022/09/15 06:31:13;;;;;;;3.12;0.90;;;;;;;14.65;84.29;97815.41;1758977;79;21475;-61
2022/09/15 06:33:47;;;;;;;5.50;0.80;;;;;;;14.63;84.13;97815.55;1768691;79;20961;-59
2022/09/15 06:36:15;;;;;;;5.78;1.77;;;;;;;14.54;83.69;97808.54;1770458;79;21342;-60
2022/09/15 06:38:43;;;;;;;4.00;0.95;;;;;;;14.48;84.04;97801.19;1761189;80;20911;-59
2022/09/15 06:41:11;;;;;;;1.45;0.62;;;;;;;14.81;84.67;97802.95;1764022;80;21016;-60
2022/09/15 06:43:39;;;;;;;4.00;0.82;;;;;;;15.42;84.96;97795.23;1768404;80;20997;-60
2022/09/15 06:46:14;;;;;;;3.08;1.05;;;;;;;16.16;84.46;97791.92;1770144;79;21012;-61
2022/09/15 06:48:42;;;;;;;3.58;1.00;;;;;;;16.67;83.96;97788.89;1745887;81;21941;-61
2022/09/15 06:51:11;;;;;;;3.40;0.80;;;;;;;17.22;83.62;97797.68;1736423;80;21123;-61
2022/09/15 06:53:39;;;;;;;1.80;0.80;;;;;;;17.76;83.04;97787.19;1769182;79;21049;-60
2022/09/15 06:56:13;;;;;;;2.35;0.70;;;;;;;18.14;83.15;97780.39;1741303;81;21732;-61
2022/09/15 06:58:42;;;;;;;4.00;0.90;;;;;;;18.45;82.53;97785.77;1738593;81;21080;-61
2022/09/15 07:01:13;;;;;;;5.03;0.98;;;;;;;18.45;81.59;97785.77;1760056;80;21255;-61
2022/09/15 07:03:43;;;;;;;3.30;0.70;;;;;;;18.54;81.27;97783.45;1763563;79;21570;-60
2022/09/15 07:06:11;;;;;;;7.20;0.93;;;;;;;18.42;81.03;97795.36;1764310;79;21342;-60
2022/09/15 07:08:39;;;;;;;2.50;0.62;;;;;;;18.38;81.68;97797.20;1761424;79;21091;-60
2022/09/15 07:11:07;;;;;;;4.42;1.05;;;;;;;18.43;81.63;97798.34;1777423;78;21014;-60
2022/09/15 07:13:41;;;;;;;1.70;0.60;;;;;;;18.59;81.63;97807.21;1774831;79;21110;-62
2022/09/15 07:16:12;;;;;;;63.15;46.75;;;;;;;18.37;80.29;97802.14;1765201;79;21080;-61
2022/09/15 07:18:40;;;;;;;4.37;2.40;;;;;;;18.05;79.77;97811.28;1764004;79;21541;-61
2022/09/15 07:21:11;;;;;;;5.40;1.40;;;;;;;17.69;79.34;97810.75;1762613;79;20974;-61
2022/09/15 07:23:38;;;;;;;2.80;0.93;;;;;;;17.45;79.50;97811.57;1762718;79;21016;-60
2022/09/15 07:26:18;;;;;;;1.12;0.57;;;;;;;17.30;79.26;97816.62;1764543;79;21194;-60
2022/09/15 07:28:50;;;;;;;3.92;0.68;;;;;;;17.23;79.01;97816.46;1767420;79;21072;-60
2022/09/15 07:31:22;;;;;;;3.05;0.60;;;;;;;17.19;79.51;97813.80;1766405;79;21661;-60
2022/09/15 07:33:49;;;;;;;6.37;0.70;;;;;;;17.48;79.59;97808.61;1769013;79;21038;-60
2022/09/15 07:36:17;;;;;;;6.87;1.07;;;;;;;17.77;78.95;97802.02;1764420;79;21528;-61
2022/09/15 07:38:47;;;;;;;1.45;0.60;;;;;;;17.88;78.66;97810.96;1762156;79;21128;-61
2022/09/15 07:41:18;;;;;;;10.70;1.07;;;;;;;18.01;77.99;97806.48;1760929;79;21298;-60
2022/09/15 07:43:50;;;;;;;3.37;0.68;;;;;;;18.15;78.02;97810.27;1769669;79;21028;-60
2022/09/15 07:46:19;;;;;;;1.85;0.62;;;;;;;18.49;78.02;97810.88;1768884;79;20914;-61
2022/09/15 07:48:51;;;;;;;7.00;1.15;;;;;;;18.61;76.88;97823.73;1765779;79;21283;-61
2022/09/15 07:51:18;;;;;;;4.35;0.85;;;;;;;18.34;75.76;97828.41;1774897;79;21598;-60
2022/09/15 07:53:51;;;;;;;;;;;;;;;18.05;75.67;97818.38;1772841;79;20951;-61
2022/09/15 07:56:17;;;;;;;1.92;0.80;;;;;;;17.87;75.37;97822.52;1774709;79;20090;-61
2022/09/15 07:58:46;;;;;;;2.22;0.72;;;;;;;17.62;75.32;97826.43;1774170;79;21055;-60
2022/09/15 08:01:14;;;;;;;2.75;1.07;;;;;;;17.32;74.94;97824.40;1771129;79;20981;-60
2022/09/15 08:03:45;;;;;;;4.20;1.65;;;;;;;17.06;74.92;97831.91;1795186;78;21193;-61
2022/09/15 08:06:13;;;;;;;6.72;1.02;;;;;;;16.93;75.29;97835.48;1793829;79;21045;-61
2022/09/15 08:08:42;;;;;;;9.88;1.32;;;;;;;16.82;75.14;97835.76;1797270;78;21154;-61
2022/09/15 08:11:13;;;;;;;5.75;1.02;;;;;;;16.78;75.39;97826.85;1797972;78;21014;-61
2022/09/15 08:13:40;;;;;;;2.35;0.82;;;;;;;16.67;74.75;97833.69;1792074;78;20957;-60
2022/09/15 08:16:11;;;;;;;3.22;0.60;;;;;;;16.54;74.73;97838.55;1795907;78;21102;-62
2022/09/15 08:18:40;;;;;;;1.45;0.70;;;;;;;16.37;74.20;97821.00;1797016;78;20985;-61
2022/09/15 08:21:11;;;;;;;0.95;0.50;;;;;;;16.26;74.34;97838.70;1797333;78;20983;-61
2022/09/15 08:23:39;;;;;;;3.37;0.80;;;;;;;16.26;74.29;97841.34;1796250;78;21518;-61
2022/09/15 08:26:09;;;;;;;3.35;0.82;;;;;;;16.32;74.58;97832.81;1794634;78;20917;-62
2022/09/15 08:28:36;;;;;;;2.10;0.80;;;;;;;16.26;73.86;97830.80;1794380;78;22495;-61
2022/09/15 08:31:08;;;;;;;1.50;1.02;;;;;;;16.19;73.99;97831.09;1799245;78;21166;-60
2022/09/15 08:34:31;;;;;;;0.70;0.45;;;;;;;16.07;73.85;97834.94;1727082;80;23534;-60
2022/09/15 08:36:58;;;;;;;1.80;0.85;;;;;;;15.94;73.78;97842.43;1716527;81;21054;-60
2022/09/15 08:39:26;;;;;;;1.35;0.75;;;;;;;15.86;73.82;97845.31;1685355;83;21136;-60
2022/09/15 08:41:59;;;;;;;5.83;0.50;;;;;;;15.86;74.00;97841.38;1686919;83;21017;-61
2022/09/15 08:44:34;;;;;;;1.27;0.53;;;;;;;15.91;73.94;97842.70;1673965;83;21045;-60
2022/09/15 08:47:25;;;;;;;2.85;2.08;;;;;;;15.90;73.97;97837.94;1680465;84;21048;-62
2022/09/15 08:50:15;;;;;;;2.42;1.40;;;;;;;15.87;73.99;97831.17;1680898;84;21010;-60
2022/09/15 08:53:05;;;;;;;1.20;0.70;;;;;;;15.98;74.02;97845.08;1680528;83;21505;-61
2022/09/15 08:55:54;;;;;;;1.52;0.50;;;;;;;16.19;74.31;97832.42;1641493;86;21012;-61
2022/09/15 08:58:28;;;;;;;2.52;0.65;;;;;;;16.43;74.15;97826.95;1623487;86;20977;-61
2022/09/15 09:01:12;;;;;;;1.60;0.55;;;;;;;16.63;73.92;97823.11;1648630;86;21065;-61
2022/09/15 09:04:08;;;;;;;0.75;0.40;;;;;;;16.87;73.82;97830.84;1621829;87;21531;-60
2022/09/15 09:07:04;;;;;;;2.05;0.80;;;;;;;17.17;73.96;97822.39;1646180;86;21924;-60
2022/09/15 09:09:57;;;;;;;0.70;0.40;;;;;;;17.42;73.83;97811.87;1630779;86;20976;-60
2022/09/15 09:12:44;;;;;;;2.65;0.60;;;;;;;17.55;73.89;97814.86;1624134;86;21661;-60
2022/09/15 09:15:25;;;;;;;1.50;0.60;;;;;;;17.74;73.81;97816.88;1624231;86;21041;-61
2022/09/15 09:18:37;;;;;;;2.25;0.70;;;;;;;17.82;72.94;97815.09;1623481;86;21025;-61
2022/09/15 09:21:18;;;;;;;2.33;0.60;;;;;;;17.70;73.42;97816.85;1622843;87;21423;-61
2022/09/15 09:24:14;;;;;;;10.85;2.17;;;;;;;17.98;73.92;97812.95;1628884;87;21635;-61
2022/09/15 09:26:41;;;;;;;13.70;1.43;;;;;;;18.05;73.17;97810.45;1630611;86;21050;-62
2022/09/15 09:29:18;;;;;;;5.67;0.80;;;;;;;18.07;73.19;97809.30;1609282;86;21656;-61
2022/09/15 09:31:50;;;;;;;4.42;1.55;;;;;;;18.02;72.68;97823.49;1631388;87;21779;-61
2022/09/15 09:34:37;;;;;;;2.98;1.10;;;;;;;17.90;72.75;97812.95;1628415;87;21333;-61
2022/09/15 09:37:14;;;;;;;29.98;2.62;;;;;;;17.79;72.70;97811.96;1629471;87;21628;-60
2022/09/15 09:39:41;;;;;;;1.72;0.80;;;;;;;17.68;72.69;97817.85;1629085;87;22317;-61
2022/09/15 09:42:15;;;;;;;2.42;0.80;;;;;;;17.73;72.93;97815.20;1630080;87;21714;-60
2022/09/15 09:44:43;;;;;;;3.42;1.00;;;;;;;17.90;72.75;97807.67;1632226;87;21412;-60
2022/09/15 09:51:35;;;;;;;2.25;1.10;;;;;;;17.89;72.13;97812.10;1820308;77;22157;-60
2022/09/15 09:54:15;;;;;;;3.35;1.00;;;;;;;17.88;72.40;97799.91;1719161;81;21135;-61
2022/09/15 09:56:41;;;;;;;4.83;1.10;;;;;;;17.93;71.75;97791.50;1717088;81;21302;-61
2022/09/15 09:59:30;;;;;;;18.87;2.15;;;;;;;17.97;71.58;97786.70;1715907;81;20983;-61
2022/09/15 10:02:14;;;;;;;4.53;0.90;;;;;;;17.88;71.43;97794.62;1705595;81;21087;-61
2022/09/15 10:04:47;;;;;;;4.10;1.40;;;;;;;17.68;70.36;97794.09;1716349;81;21007;-62
2022/09/15 10:07:17;;;;;;;6.62;1.60;;;;;;;17.48;70.72;97803.83;1721864;81;21674;-60
2022/09/15 10:09:57;;;;;;;5.40;1.25;;;;;;;17.46;70.70;97800.02;1715939;81;21051;-62
2022/09/15 10:12:34;;;;;;;2.80;0.75;;;;;;;17.54;70.96;97803.98;1714263;81;21038;-61
2022/09/15 10:15:03;;;;;;;;;;;;;;;17.71;70.92;97800.86;1690415;81;21087;-61
2022/09/15 10:17:42;;;;;;;2.60;0.82;;;;;;;17.89;70.55;97795.44;1727210;81;20233;-63
2022/09/15 10:20:34;;;;;;;2.35;0.80;;;;;;;18.05;70.72;97794.11;1711945;81;21020;-60
2022/09/15 10:23:06;;;;;;;1.37;0.72;;;;;;;18.08;70.17;97797.73;1710142;81;22900;-62
2022/09/15 10:25:37;;;;;;;1.72;0.70;;;;;;;17.97;69.44;97796.76;1710234;80;21208;-62
2022/09/15 10:28:12;;;;;;;8.38;1.47;;;;;;;17.88;69.93;97797.27;1718679;81;20980;-62
2022/09/15 10:31:02;;;;;;;7.45;1.37;;;;;;;17.89;69.59;97795.44;1744729;78;21471;-62
2022/09/15 10:33:35;;;;;;;1.95;0.70;;;;;;;17.87;69.45;97790.34;1799391;78;21258;-61
2022/09/15 10:36:22;;;;;;;17.15;1.75;;;;;;;17.78;69.11;97790.47;1813640;77;21978;-61
2022/09/15 10:39:07;;;;;;;;;;;;;;;17.89;69.34;97783.56;1819524;78;21005;-61
2022/09/15 10:41:38;;;;;;;12.40;1.45;;;;;;;18.03;68.36;97785.52;1815786;77;20164;-61
2022/09/15 10:44:22;;;;;;;4.20;0.80;;;;;;;17.85;68.23;97780.94;1812999;78;21008;-61
2022/09/15 10:47:09;;;;;;;2.72;0.75;;;;;;;17.63;67.82;97784.52;1817147;78;21082;-61
2022/09/15 10:49:45;;;;;;;1.52;0.60;;;;;;;17.21;67.39;97793.88;1814349;77;21907;-62
2022/09/15 10:52:29;;;;;;;1.98;0.85;;;;;;;16.81;67.36;97797.22;1808817;78;21588;-62
2022/09/15 10:55:24;;;;;;;3.85;0.55;;;;;;;16.49;67.48;97801.30;1807970;78;20938;-62
2022/09/15 10:58:32;;;;;;;2.77;0.60;;;;;;;16.25;67.28;97823.89;1800917;78;21042;-60
2022/09/15 11:01:22;;;;;;;2.58;0.60;;;;;;;15.58;66.78;97838.46;1806166;78;20959;-60
2022/09/15 11:04:24;;;;;;;1.45;0.35;;;;;;;14.85;67.56;97844.56;1711322;81;22236;-59
2022/09/15 11:07:18;;;;;;;1.70;0.60;;;;;;;14.45;68.13;97826.42;1716834;82;21084;-59
2022/09/15 11:09:53;;;;;;;2.52;0.60;;;;;;;14.15;68.50;97830.11;1725927;82;21086;-60
2022/09/15 11:12:31;;;;;;;9.53;0.60;;;;;;;14.02;68.59;97835.16;1716791;81;21516;-60
2022/09/15 11:15:18;;;;;;;1.85;0.60;;;;;;;13.96;68.81;97838.34;1715315;81;21137;-60
2022/09/15 11:18:03;;;;;;;;;;;;;;;13.98;69.08;97840.35;1620091;88;21168;-59
2022/09/15 11:20:59;;;;;;;2.05;0.72;;;;;;;13.94;69.33;97844.20;1618540;85;20149;-61
2022/09/15 11:23:35;;;;;;;;;;;;;;;14.05;69.53;97830.94;1561211;90;21211;-59
2022/09/15 11:26:13;;;;;;;3.17;0.75;;;;;;;14.34;69.91;97840.56;1558638;90;20186;-59
2022/09/15 11:28:48;;;;;;;5.12;0.62;;;;;;;14.64;70.17;97833.44;1527907;93;21273;-61
2022/09/15 11:31:34;;;;;;;2.40;0.68;;;;;;;15.07;70.15;97826.73;1530963;92;22275;-61
2022/09/15 11:34:06;;;;;;;2.42;0.62;;;;;;;15.32;69.87;97825.20;1539361;92;21224;-61
2022/09/15 11:39:48;;;;;;;4.83;0.90;;;;;;;15.87;69.88;97823.27;1499827;94;21104;-58
2022/09/15 11:42:35;;;;;;;1.60;0.70;;;;;;;16.15;69.98;97811.80;1554916;90;21093;-61
2022/09/15 11:45:03;;;;;;;;;;;;;;;16.33;69.77;97804.69;1571830;90;21425;-59
2022/09/15 11:47:42;;;;;;;2.35;0.68;;;;;;;16.48;69.62;97806.25;1569387;90;20212;-60
2022/09/15 11:50:23;;;;;;;2.20;0.68;;;;;;;16.49;69.37;97822.38;1573407;89;21242;-60
2022/09/15 11:53:03;;;;;;;2.12;0.65;;;;;;;15.99;67.58;97841.45;1575036;90;21123;-60
2022/09/15 11:55:40;;;;;;;1.07;0.57;;;;;;;15.40;68.71;97835.80;1610790;87;21039;-60
2022/09/15 11:58:29;;;;;;;4.00;0.70;;;;;;;14.93;68.96;97843.35;1620003;87;21484;-59
2022/09/15 12:01:28;;;;;;;3.30;0.98;;;;;;;14.73;69.66;97843.07;1634345;86;21033;-59
2022/09/15 12:04:03;;;;;;;5.20;1.07;;;;;;;14.75;69.86;97843.77;1653414;85;21367;-59
2022/09/15 12:06:35;;;;;;;4.20;0.70;;;;;;;14.79;69.97;97842.52;1653855;85;21237;-60
2022/09/15 12:09:06;;;;;;;1.72;0.72;;;;;;;15.16;70.60;97841.64;1655942;85;20977;-60
2022/09/15 12:11:41;;;;;;;4.45;1.00;;;;;;;15.53;70.34;97856.48;1650725;84;21075;-60
2022/09/15 12:14:25;;;;;;;3.40;0.80;;;;;;;15.59;70.29;97847.99;1629529;86;21083;-59
2022/09/15 12:16:54;;;;;;;2.12;0.80;;;;;;;15.64;70.07;97840.48;1629958;86;21874;-60
2022/09/15 12:19:55;;;;;;;2.55;0.70;;;;;;;15.80;70.39;97848.56;1632231;86;21113;-59
2022/09/15 12:22:29;;;;;;;2.77;0.75;;;;;;;15.82;70.08;97841.35;1648825;86;21134;-60
2022/09/15 12:25:02;;;;;;;4.85;0.80;;;;;;;15.78;69.95;97836.03;1634391;86;21187;-60
2022/09/15 12:27:32;;;;;;;2.95;0.57;;;;;;;15.59;69.47;97830.89;1634059;86;21130;-60
2022/09/15 12:30:00;;;;;;;2.05;1.00;;;;;;;15.40;69.90;97843.23;1634969;86;21107;-60